Time;durP1;ratioP1;P1;durP2;ratioP2;P2;SDS_P1;SDS_P2;PMS_P1;PMS_P2;Temp;Humidity;BMP_temperature;BMP_pressure;BME280_temperature;BME280_humidity;BME280_pressure;Samples;Min_cycle;Max_cycle;Signal;HPM_P1;HPM_P2
2022/08/29 00:00:12;;;;;;;6.03;1.63;;;14.40;99.90;;;;;;4859257;29;20112;-73
2022/08/29 00:02:38;;;;;;;1.40;1.10;;;14.50;99.90;;;;;;4859349;29;20100;-73
2022/08/29 00:05:05;;;;;;;4.28;1.40;;;14.40;99.90;;;;;;4859305;29;20100;-73
2022/08/29 00:07:31;;;;;;;2.38;1.63;;;14.30;99.90;;;;;;4858235;29;20515;-73
2022/08/29 00:09:56;;;;;;;3.70;1.42;;;14.20;99.90;;;;;;4859394;29;20064;-73
2022/08/29 00:12:22;;;;;;;5.05;1.52;;;14.10;99.90;;;;;;4859128;29;20030;-73
2022/08/29 00:14:48;;;;;;;1.50;1.38;;;14.10;99.90;;;;;;4858899;29;20026;-73
2022/08/29 00:17:13;;;;;;;4.60;2.00;;;14.00;99.90;;;;;;4859198;29;20058;-73
2022/08/29 00:19:39;;;;;;;1.70;1.27;;;13.90;99.90;;;;;;4859100;29;20033;-73
2022/08/29 00:22:05;;;;;;;2.05;1.40;;;13.80;99.90;;;;;;4860782;29;20041;-73
2022/08/29 00:24:31;;;;;;;2.35;1.30;;;13.80;99.90;;;;;;4862489;29;20475;-74
2022/08/29 00:26:59;;;;;;;6.32;1.50;;;13.80;99.90;;;;;;4862543;29;20106;-73
2022/08/29 00:29:25;;;;;;;3.13;1.25;;;13.70;99.90;;;;;;4862551;29;20033;-73
2022/08/29 00:31:51;;;;;;;3.38;1.20;;;13.70;99.90;;;;;;4862418;29;20037;-74
2022/08/29 00:34:17;;;;;;;1.77;1.15;;;13.70;99.90;;;;;;4861116;29;20117;-73
2022/08/29 00:36:42;;;;;;;4.20;1.52;;;13.70;99.90;;;;;;4862358;29;20025;-76
2022/08/29 00:39:08;;;;;;;6.10;1.30;;;13.70;99.90;;;;;;4860895;29;20033;-74
2022/08/29 00:41:33;;;;;;;2.65;1.70;;;13.70;99.90;;;;;;4862826;29;20109;-74
2022/08/29 00:43:59;;;;;;;4.65;1.58;;;13.70;99.90;;;;;;4862148;29;20073;-73
2022/08/29 00:46:51;;;;;;;3.75;1.33;;;13.70;99.90;;;;;;4861879;29;20033;-73
2022/08/29 00:49:17;;;;;;;2.20;1.25;;;13.70;99.90;;;;;;4861917;29;20490;-74
2022/08/29 00:51:44;;;;;;;6.75;1.33;;;13.80;99.90;;;;;;4861923;29;20105;-74
2022/08/29 00:54:12;;;;;;;1.50;1.15;;;13.80;99.90;;;;;;4861819;29;20037;-76
2022/08/29 00:56:40;;;;;;;2.20;1.10;;;13.90;99.90;;;;;;4861989;29;20036;-73
2022/08/29 00:59:26;;;;;;;2.42;1.33;;;13.90;99.90;;;;;;4861983;29;20101;-74
2022/08/29 01:01:52;;;;;;;4.50;1.27;;;14.00;99.90;;;;;;4861960;29;20026;-76
2022/08/29 01:04:18;;;;;;;2.92;1.27;;;14.00;99.90;;;;;;4861862;29;20036;-73
2022/08/29 01:06:44;;;;;;;1.30;1.20;;;14.10;99.90;;;;;;4861118;29;20042;-74
2022/08/29 01:09:11;;;;;;;4.80;1.42;;;14.10;99.90;;;;;;4861432;29;20022;-76
2022/08/29 01:14:23;;;;;;;2.88;1.55;;;14.20;99.90;;;;;;4861730;29;20395;-73
2022/08/29 01:16:51;;;;;;;3.33;1.40;;;14.20;99.90;;;;;;4861805;29;20044;-73
2022/08/29 01:19:33;;;;;;;4.55;1.48;;;14.20;99.90;;;;;;4861643;29;20033;-76
2022/08/29 01:22:35;;;;;;;4.53;1.45;;;14.20;99.90;;;;;;4861367;29;20037;-74
2022/08/29 01:25:12;;;;;;;3.50;1.13;;;14.30;99.90;;;;;;4861632;29;20033;-76
2022/08/29 01:27:42;;;;;;;1.67;1.40;;;14.30;99.90;;;;;;4861513;29;20040;-73
2022/08/29 01:30:09;;;;;;;2.88;1.50;;;14.30;99.90;;;;;;4861839;29;20058;-76
2022/08/29 01:32:35;;;;;;;3.55;1.58;;;14.30;99.90;;;;;;4860705;29;20025;-76
2022/08/29 01:35:00;;;;;;;3.55;1.50;;;14.30;99.90;;;;;;4861079;29;20109;-73
2022/08/29 01:37:30;;;;;;;3.83;1.75;;;14.30;99.90;;;;;;4861121;29;20037;-73
2022/08/29 01:39:56;;;;;;;1.75;1.40;;;14.30;99.90;;;;;;4861377;29;20487;-76
2022/08/29 01:42:23;;;;;;;2.90;1.98;;;14.40;99.90;;;;;;4861582;29;20040;-74
2022/08/29 01:44:55;;;;;;;2.90;1.60;;;14.30;99.90;;;;;;4861072;29;20056;-76
2022/08/29 01:47:22;;;;;;;;;;;14.30;99.90;;;;;;4861545;29;20042;-76
2022/08/29 01:49:48;;;;;;;3.30;1.55;;;14.30;99.90;;;;;;4861256;29;19994;-73
2022/08/29 01:52:14;;;;;;;3.40;1.48;;;14.30;99.90;;;;;;4861084;29;20026;-74
2022/08/29 01:54:41;;;;;;;2.55;1.15;;;14.30;99.90;;;;;;4860883;29;20037;-73
2022/08/29 01:57:08;;;;;;;7.85;1.70;;;14.30;99.90;;;;;;4859925;29;20062;-76
2022/08/29 01:59:35;;;;;;;3.85;1.50;;;14.30;99.90;;;;;;4861103;29;20022;-76
2022/08/29 02:02:06;;;;;;;4.85;1.50;;;14.30;99.90;;;;;;4861015;29;20036;-73
2022/08/29 02:04:33;;;;;;;1.73;1.38;;;14.30;99.90;;;;;;4860800;29;20077;-74
2022/08/29 02:06:59;;;;;;;2.78;1.20;;;14.30;99.90;;;;;;4860082;29;20037;-73
2022/08/29 02:09:27;;;;;;;1.30;1.20;;;14.30;99.90;;;;;;4860525;29;20035;-74
2022/08/29 02:11:54;;;;;;;4.40;1.77;;;14.20;99.90;;;;;;4860757;29;20091;-74
2022/08/29 02:14:21;;;;;;;1.52;1.05;;;14.20;99.90;;;;;;4860592;29;20030;-76
2022/08/29 02:16:47;;;;;;;3.08;1.45;;;14.20;99.90;;;;;;4860787;29;20479;-76
2022/08/29 02:19:13;;;;;;;3.75;1.40;;;14.20;99.90;;;;;;4860560;29;20025;-76
2022/08/29 02:21:39;;;;;;;2.55;1.40;;;14.10;99.90;;;;;;4860730;29;20029;-76
2022/08/29 02:24:06;;;;;;;4.32;1.55;;;14.10;99.90;;;;;;4860327;29;20089;-73
2022/08/29 02:26:33;;;;;;;3.17;1.65;;;14.00;99.90;;;;;;4860490;29;20041;-76
2022/08/29 02:28:59;;;;;;;2.83;1.27;;;14.00;99.90;;;;;;4860579;29;20025;-76
2022/08/29 02:31:25;;;;;;;3.05;1.45;;;13.90;99.90;;;;;;4860593;29;20112;-74
2022/08/29 02:33:51;;;;;;;1.60;1.50;;;13.90;99.90;;;;;;4860354;29;20117;-74
2022/08/29 02:36:18;;;;;;;2.65;1.52;;;13.80;99.90;;;;;;4860338;29;20086;-74
2022/08/29 02:38:44;;;;;;;3.15;1.70;;;13.80;99.90;;;;;;4859951;29;20037;-73
2022/08/29 02:41:10;;;;;;;3.53;1.48;;;13.90;99.90;;;;;;4860251;29;20472;-76
2022/08/29 02:43:36;;;;;;;2.25;1.67;;;14.00;99.90;;;;;;4860457;29;20060;-73
2022/08/29 02:46:03;;;;;;;3.03;1.40;;;14.00;99.90;;;;;;4859979;29;20034;-76
2022/08/29 02:48:29;;;;;;;4.28;2.05;;;13.90;99.90;;;;;;4860175;29;20037;-76
2022/08/29 02:50:57;;;;;;;1.60;1.45;;;13.90;99.90;;;;;;4860226;29;20105;-76
2022/08/29 02:53:25;;;;;;;10.52;1.90;;;13.90;99.90;;;;;;4859623;29;20033;-76
2022/08/29 02:55:52;;;;;;;1.38;1.25;;;13.90;99.90;;;;;;4860048;29;20029;-75
2022/08/29 02:58:19;;;;;;;3.83;1.58;;;13.80;99.90;;;;;;4859904;29;20025;-74
2022/08/29 03:00:45;;;;;;;5.00;1.70;;;13.80;99.90;;;;;;4860116;29;20028;-74
2022/08/29 03:03:11;;;;;;;5.20;1.52;;;13.80;99.90;;;;;;4859990;29;20033;-73
2022/08/29 03:05:37;;;;;;;2.25;1.10;;;13.70;99.90;;;;;;4859967;29;20030;-76
2022/08/29 03:08:06;;;;;;;4.20;1.70;;;13.70;99.90;;;;;;4858824;29;20044;-76
2022/08/29 03:10:33;;;;;;;6.25;1.42;;;13.70;99.90;;;;;;4859843;29;20082;-73
2022/08/29 03:12:58;;;;;;;5.25;1.60;;;13.60;99.90;;;;;;4859777;29;20085;-76
2022/08/29 03:15:25;;;;;;;3.67;1.50;;;13.50;99.90;;;;;;4859960;29;20031;-76
2022/08/29 03:17:51;;;;;;;2.63;1.52;;;13.50;99.90;;;;;;4859794;29;20047;-76
2022/08/29 03:20:19;;;;;;;2.30;1.30;;;13.60;99.90;;;;;;4859785;29;20030;-74
2022/08/29 03:22:46;;;;;;;3.35;1.30;;;13.50;99.90;;;;;;4859229;29;20991;-76
2022/08/29 03:25:12;;;;;;;3.00;1.10;;;13.50;99.90;;;;;;4859858;29;20061;-76
2022/08/29 03:27:39;;;;;;;4.90;1.75;;;13.40;99.90;;;;;;4859698;29;20120;-74
2022/08/29 03:30:07;;;;;;;3.75;1.50;;;13.40;99.90;;;;;;4859636;29;20487;-73
2022/08/29 03:32:33;;;;;;;5.50;1.42;;;13.30;99.90;;;;;;4859606;29;20030;-73
2022/08/29 03:34:59;;;;;;;4.95;1.55;;;13.30;99.90;;;;;;4859287;29;20065;-76
2022/08/29 03:37:25;;;;;;;1.98;1.58;;;13.30;99.90;;;;;;4859376;29;20467;-73
2022/08/29 03:39:53;;;;;;;4.80;1.45;;;13.30;99.90;;;;;;4859562;29;20109;-74
2022/08/29 03:42:19;;;;;;;2.08;1.10;;;13.30;99.90;;;;;;4872874;23;20515;-73
2022/08/29 03:44:44;;;;;;;3.05;1.65;;;13.20;99.90;;;;;;4861330;29;20045;-73
2022/08/29 03:47:10;;;;;;;5.43;1.88;;;13.10;99.90;;;;;;4858256;29;20475;-73
2022/08/29 03:49:36;;;;;;;1.67;1.58;;;13.00;99.90;;;;;;4858267;29;20032;-73
2022/08/29 03:52:03;;;;;;;2.85;1.10;;;13.10;99.90;;;;;;4859430;29;20029;-73
2022/08/29 03:54:29;;;;;;;3.25;1.67;;;13.00;99.90;;;;;;4859306;29;20120;-73
2022/08/29 03:56:55;;;;;;;6.85;1.52;;;12.90;99.90;;;;;;4861246;29;20501;-73
2022/08/29 03:59:21;;;;;;;5.82;1.58;;;12.90;99.90;;;;;;4863007;29;20109;-73
2022/08/29 04:01:47;;;;;;;3.47;1.60;;;12.90;99.90;;;;;;4863128;29;20092;-73
2022/08/29 04:07:00;;;;;;;5.68;2.10;;;13.10;99.90;;;;;;4862067;29;20066;-73
2022/08/29 04:09:26;;;;;;;3.97;1.75;;;13.10;99.90;;;;;;4862712;29;20021;-73
2022/08/29 04:11:52;;;;;;;4.90;2.22;;;13.10;99.90;;;;;;4862954;29;20082;-73
2022/08/29 04:14:19;;;;;;;3.03;1.52;;;13.10;99.90;;;;;;4862901;29;20468;-73
2022/08/29 04:16:50;;;;;;;4.50;1.88;;;13.10;99.90;;;;;;4862800;29;20030;-73
2022/08/29 04:19:20;;;;;;;2.53;2.05;;;13.20;99.90;;;;;;4862903;29;20029;-73
2022/08/29 04:21:47;;;;;;;4.07;1.85;;;13.10;99.90;;;;;;4862609;29;20108;-73
2022/08/29 04:24:14;;;;;;;2.22;2.00;;;13.10;99.90;;;;;;4862691;29;20029;-73
2022/08/29 04:26:39;;;;;;;3.33;1.98;;;13.10;99.90;;;;;;4862584;29;20097;-73
2022/08/29 04:29:10;;;;;;;2.85;1.92;;;13.10;99.90;;;;;;4862621;29;20109;-73
2022/08/29 04:31:37;;;;;;;1.83;1.73;;;13.10;99.90;;;;;;4862660;29;20032;-73
2022/08/29 04:34:05;;;;;;;3.67;1.70;;;13.10;99.90;;;;;;4862406;29;20030;-73
2022/08/29 04:36:34;;;;;;;6.38;1.92;;;13.10;99.90;;;;;;4862526;29;20061;-73
2022/08/29 04:38:59;;;;;;;5.95;2.65;;;13.10;99.90;;;;;;4862205;29;20490;-73
2022/08/29 04:41:25;;;;;;;4.20;1.92;;;13.10;99.90;;;;;;4862379;29;20022;-73
2022/08/29 04:43:51;;;;;;;4.68;2.10;;;13.10;99.90;;;;;;4862765;29;20041;-73
2022/08/29 04:46:17;;;;;;;7.70;2.45;;;13.20;99.90;;;;;;4862229;29;20463;-73
2022/08/29 04:48:43;;;;;;;2.28;1.80;;;13.20;99.90;;;;;;4862417;29;20037;-73
2022/08/29 04:51:09;;;;;;;5.50;2.42;;;13.20;99.90;;;;;;4862075;29;20049;-73
2022/08/29 04:53:35;;;;;;;4.18;2.78;;;13.20;99.90;;;;;;4860464;29;20386;-73
2022/08/29 04:56:05;;;;;;;5.10;2.22;;;13.10;99.90;;;;;;4862017;29;20030;-74
2022/08/29 04:58:35;;;;;;;3.90;2.65;;;13.10;99.90;;;;;;4862208;29;20064;-73
2022/08/29 05:01:02;;;;;;;2.78;2.22;;;13.10;99.90;;;;;;4862007;29;20150;-73
2022/08/29 05:03:28;;;;;;;7.55;2.63;;;13.10;99.90;;;;;;4861824;29;20021;-73
2022/08/29 05:06:00;;;;;;;5.03;2.10;;;13.10;99.90;;;;;;4861716;29;20105;-74
2022/08/29 05:08:26;;;;;;;;;;;13.00;99.90;;;;;;4860752;29;20055;-74
2022/08/29 05:10:52;;;;;;;3.20;2.00;;;13.10;99.90;;;;;;4861938;29;19919;-75
2022/08/29 05:13:18;;;;;;;5.85;2.10;;;13.10;99.90;;;;;;4861926;29;20109;-75
2022/08/29 05:15:44;;;;;;;4.82;2.22;;;13.10;99.90;;;;;;4862062;29;20049;-75
2022/08/29 05:18:13;;;;;;;7.50;2.40;;;13.20;99.90;;;;;;4861915;29;20403;-75
2022/08/29 05:20:40;;;;;;;2.92;1.92;;;13.20;99.90;;;;;;4861805;29;20061;-75
2022/08/29 05:23:07;;;;;;;3.63;1.90;;;13.20;99.90;;;;;;4861455;29;20025;-75
2022/08/29 05:25:32;;;;;;;2.22;2.00;;;13.20;99.90;;;;;;4861727;29;20049;-75
2022/08/29 05:27:58;;;;;;;5.85;2.22;;;13.30;99.90;;;;;;4861594;29;20040;-75
2022/08/29 05:30:24;;;;;;;2.17;1.98;;;13.30;99.90;;;;;;4861569;29;20025;-75
2022/08/29 05:32:50;;;;;;;5.28;2.10;;;13.30;99.90;;;;;;4861540;29;20037;-75
2022/08/29 05:35:17;;;;;;;6.10;2.03;;;13.30;99.90;;;;;;4861530;29;20064;-75
2022/08/29 05:37:42;;;;;;;5.13;2.60;;;13.30;99.90;;;;;;4859848;29;20047;-75
2022/08/29 05:40:08;;;;;;;4.65;1.92;;;13.30;99.90;;;;;;4861347;29;20467;-75
2022/08/29 05:42:34;;;;;;;5.55;2.28;;;13.30;99.90;;;;;;4861619;29;20046;-75
2022/08/29 05:45:01;;;;;;;8.57;2.25;;;13.30;99.90;;;;;;4861222;29;20022;-75
2022/08/29 05:47:27;;;;;;;4.40;1.98;;;13.30;99.90;;;;;;4860204;29;20037;-75
2022/08/29 05:49:52;;;;;;;2.42;1.70;;;13.40;99.90;;;;;;4861265;29;20577;-75
2022/08/29 05:52:20;;;;;;;3.95;1.85;;;13.40;99.90;;;;;;4861000;29;20029;-75
2022/08/29 05:54:46;;;;;;;6.28;2.25;;;13.40;99.90;;;;;;4861125;29;20061;-75
2022/08/29 05:57:14;;;;;;;7.72;2.03;;;13.50;99.90;;;;;;4861128;29;20060;-75
2022/08/29 05:59:40;;;;;;;7.40;2.38;;;13.50;99.90;;;;;;4861101;29;20029;-74
2022/08/29 06:02:08;;;;;;;5.03;2.17;;;13.50;99.90;;;;;;4861074;29;20443;-75
2022/08/29 06:04:34;;;;;;;3.47;2.42;;;13.50;99.90;;;;;;4860851;29;20503;-75
2022/08/29 06:07:00;;;;;;;3.45;2.50;;;13.60;99.90;;;;;;4859983;29;20034;-75
2022/08/29 06:09:27;;;;;;;2.45;2.05;;;13.70;99.90;;;;;;4860638;29;20033;-75
2022/08/29 06:11:53;;;;;;;7.03;2.58;;;13.70;99.90;;;;;;4861098;29;20052;-75
2022/08/29 06:14:19;;;;;;;3.35;2.28;;;13.80;99.90;;;;;;4860843;29;20021;-75
2022/08/29 06:16:45;;;;;;;4.82;2.33;;;13.90;99.90;;;;;;4859481;29;20390;-75
2022/08/29 06:19:11;;;;;;;2.80;2.30;;;13.90;99.90;;;;;;4860093;29;20026;-75
2022/08/29 06:21:37;;;;;;;4.57;2.15;;;14.00;99.90;;;;;;4859336;29;20463;-75
2022/08/29 06:24:04;;;;;;;4.88;2.25;;;14.10;99.90;;;;;;4858915;29;20101;-74
2022/08/29 06:26:30;;;;;;;3.80;2.33;;;14.20;99.90;;;;;;4859097;29;20120;-75
2022/08/29 06:28:56;;;;;;;6.22;2.50;;;14.20;99.90;;;;;;4860565;29;20037;-75
2022/08/29 06:31:26;;;;;;;5.68;2.40;;;14.30;99.90;;;;;;4860535;29;20475;-74
2022/08/29 06:33:55;;;;;;;4.80;2.65;;;14.30;99.90;;;;;;4859628;29;20041;-75
2022/08/29 06:36:24;;;;;;;4.63;2.47;;;14.30;99.90;;;;;;4860062;29;20124;-75
2022/08/29 06:38:50;;;;;;;5.00;2.80;;;14.40;99.90;;;;;;4860492;29;20082;-74
2022/08/29 06:41:16;;;;;;;7.10;2.15;;;14.50;99.90;;;;;;4860510;29;20034;-75
2022/08/29 06:43:42;;;;;;;5.05;2.38;;;14.50;99.90;;;;;;4859506;29;20037;-75
2022/08/29 06:46:19;;;;;;;4.30;1.90;;;14.70;99.90;;;;;;4860266;29;20037;-74
2022/08/29 06:48:45;;;;;;;5.95;2.28;;;14.70;99.90;;;;;;4858855;29;20070;-75
2022/08/29 06:51:11;;;;;;;5.22;2.28;;;14.80;99.90;;;;;;4859775;29;20025;-75
2022/08/29 06:53:36;;;;;;;5.20;2.30;;;14.90;99.90;;;;;;4859917;29;20157;-75
2022/08/29 06:56:04;;;;;;;3.53;1.80;;;15.00;99.90;;;;;;4860009;29;20081;-75
2022/08/29 06:58:29;;;;;;;5.43;2.40;;;15.00;99.90;;;;;;4860181;29;20040;-75
2022/08/29 07:00:55;;;;;;;2.55;2.10;;;15.20;99.90;;;;;;4859991;29;20029;-75
2022/08/29 07:03:21;;;;;;;3.90;2.00;;;15.30;99.90;;;;;;4859828;29;20029;-75
2022/08/29 07:05:52;;;;;;;6.97;2.00;;;15.30;99.90;;;;;;4859590;29;20044;-75
2022/08/29 07:08:18;;;;;;;4.03;1.88;;;15.40;99.90;;;;;;4858395;29;20360;-75
2022/08/29 07:10:44;;;;;;;2.40;1.45;;;15.50;99.90;;;;;;4859909;29;20479;-74
2022/08/29 07:13:10;;;;;;;7.63;2.22;;;15.60;99.90;;;;;;4859742;29;20069;-75
2022/08/29 07:15:36;;;;;;;4.38;1.90;;;15.70;99.90;;;;;;4859739;29;20642;-75
2022/08/29 07:18:02;;;;;;;4.80;2.08;;;15.90;99.90;;;;;;4859703;29;20029;-74
2022/08/29 07:20:27;;;;;;;7.68;1.70;;;16.10;99.90;;;;;;4858707;29;20081;-75
2022/08/29 07:22:54;;;;;;;3.25;1.60;;;16.10;99.90;;;;;;4859237;29;20034;-74
2022/08/29 07:25:20;;;;;;;2.28;1.40;;;16.20;99.90;;;;;;4859510;29;20036;-75
2022/08/29 07:27:47;;;;;;;1.42;1.30;;;16.30;99.90;;;;;;4859776;29;20159;-74
2022/08/29 07:30:15;;;;;;;3.60;1.95;;;16.30;99.90;;;;;;4858582;29;20061;-74
2022/08/29 07:32:43;;;;;;;5.25;1.60;;;16.30;99.90;;;;;;4859468;29;20026;-75
2022/08/29 07:35:11;;;;;;;2.58;1.55;;;16.50;99.90;;;;;;4859667;29;20483;-74
2022/08/29 07:37:37;;;;;;;5.07;1.20;;;16.60;99.90;;;;;;4859335;29;20030;-74
2022/08/29 07:40:03;;;;;;;3.03;1.23;;;16.70;99.90;;;;;;4859663;29;20057;-74
2022/08/29 07:42:29;;;;;;;2.92;0.90;;;17.00;99.90;;;;;;4859729;29;20033;-75
2022/08/29 07:44:55;;;;;;;2.38;1.30;;;17.10;99.90;;;;;;4859502;29;20036;-74
2022/08/29 07:47:21;;;;;;;3.58;1.38;;;17.20;99.90;;;;;;4859469;29;20045;-75
2022/08/29 07:49:46;;;;;;;1.40;1.30;;;17.20;99.90;;;;;;4859443;29;20074;-75
2022/08/29 07:52:12;;;;;;;3.33;1.10;;;17.20;99.90;;;;;;4859342;29;20034;-74
2022/08/29 07:54:38;;;;;;;2.20;1.08;;;17.30;99.90;;;;;;4859125;29;20551;-74
2022/08/29 07:57:04;;;;;;;3.40;1.08;;;17.40;99.90;;;;;;4859100;29;20045;-75
2022/08/29 07:59:30;;;;;;;2.83;0.93;;;17.50;99.90;;;;;;4858968;29;20052;-74
2022/08/29 08:01:56;;;;;;;1.65;0.85;;;17.60;99.90;;;;;;4859177;29;20387;-74
2022/08/29 08:04:21;;;;;;;1.33;0.90;;;17.70;99.90;;;;;;4859244;29;20025;-75
2022/08/29 08:06:47;;;;;;;3.58;1.02;;;17.90;99.90;;;;;;4859290;29;20030;-75
2022/08/29 08:09:14;;;;;;;1.77;0.93;;;18.20;99.90;;;;;;4857950;29;20030;-75
2022/08/29 08:11:40;;;;;;;3.00;1.15;;;18.50;99.90;;;;;;4859280;29;20025;-75
2022/08/29 08:14:06;;;;;;;4.82;1.08;;;18.90;99.90;;;;;;4857614;29;20596;-75
2022/08/29 08:16:33;;;;;;;3.00;1.10;;;19.10;99.90;;;;;;4859323;29;20475;-75
2022/08/29 08:18:59;;;;;;;2.92;0.88;;;19.10;99.90;;;;;;4859394;29;20076;-75
2022/08/29 08:21:25;;;;;;;1.77;0.80;;;19.10;99.90;;;;;;4858089;29;20436;-75
2022/08/29 08:23:52;;;;;;;2.50;0.70;;;19.30;99.90;;;;;;4859036;29;20025;-75
2022/08/29 08:26:18;;;;;;;2.47;0.80;;;19.40;99.90;;;;;;4859056;29;20052;-75
2022/08/29 08:28:44;;;;;;;4.03;1.20;;;19.50;99.90;;;;;;4857704;29;20097;-75
2022/08/29 08:31:12;;;;;;;2.08;0.80;;;19.40;99.90;;;;;;4858981;29;20033;-75
2022/08/29 08:33:38;;;;;;;2.25;0.88;;;19.50;99.90;;;;;;4858965;29;20471;-75
2022/08/29 08:36:14;;;;;;;4.47;2.13;;;19.70;99.90;;;;;;4856941;29;20044;-75
2022/08/29 08:38:40;;;;;;;1.65;1.00;;;20.10;99.90;;;;;;4858788;29;20089;-75
2022/08/29 08:41:24;;;;;;;3.45;0.68;;;20.40;98.70;;;;;;4859132;29;20463;-75
2022/08/29 08:44:15;;;;;;;3.80;0.80;;;20.60;97.40;;;;;;4862469;29;20041;-75
2022/08/29 08:46:46;;;;;;;3.85;0.73;;;20.90;91.50;;;;;;4859241;29;20042;-75
2022/08/29 08:49:21;;;;;;;3.85;0.90;;;21.00;90.60;;;;;;4862474;29;20030;-75
2022/08/29 08:51:55;;;;;;;1.05;0.73;;;21.20;91.60;;;;;;4861969;29;20065;-75
2022/08/29 08:54:25;;;;;;;3.92;0.77;;;21.30;90.30;;;;;;4861945;29;20036;-75
2022/08/29 08:57:02;;;;;;;3.90;0.93;;;21.40;81.90;;;;;;4862265;29;20026;-75
2022/08/29 08:59:38;;;;;;;5.97;1.35;;;21.40;79.10;;;;;;4862312;29;20112;-75
2022/08/29 09:02:34;;;;;;;2.25;0.80;;;21.50;81.10;;;;;;4862058;29;20040;-75
2022/08/29 09:05:30;;;;;;;4.10;0.98;;;21.30;77.60;;;;;;4862125;29;20022;-75
2022/08/29 09:08:34;;;;;;;2.75;0.80;;;21.20;83.70;;;;;;4860384;29;20034;-75
2022/08/29 09:11:08;;;;;;;2.22;0.82;;;21.10;81.10;;;;;;4862088;29;20024;-75
2022/08/29 09:14:07;;;;;;;1.58;0.70;;;21.10;81.70;;;;;;4861989;29;20025;-75
2022/08/29 09:16:41;;;;;;;2.97;1.08;;;21.10;77.60;;;;;;4861933;29;20057;-76
2022/08/29 09:19:09;;;;;;;2.22;0.80;;;21.40;78.90;;;;;;4861898;29;20067;-75
2022/08/29 09:22:04;;;;;;;3.42;0.88;;;21.40;77.70;;;;;;4862008;29;20022;-75
2022/08/29 09:24:45;;;;;;;3.17;0.77;;;21.00;81.40;;;;;;4861533;29;20029;-75
2022/08/29 09:27:24;;;;;;;1.92;0.77;;;21.00;89.20;;;;;;4861578;29;20480;-74
2022/08/29 09:30:14;;;;;;;3.45;1.15;;;21.00;90.60;;;;;;4860450;29;20124;-74
2022/08/29 09:33:04;;;;;;;1.65;0.63;;;20.90;91.20;;;;;;4860210;29;20498;-75
2022/08/29 09:35:36;;;;;;;0.70;0.68;;;20.80;91.80;;;;;;4861425;29;20045;-75
2022/08/29 09:38:04;;;;;;;4.13;0.85;;;20.90;95.10;;;;;;4861377;29;20021;-75
2022/08/29 09:40:51;;;;;;;3.17;1.15;;;21.40;83.40;;;;;;4861568;29;20101;-75
2022/08/29 09:43:27;;;;;;;1.33;0.50;;;22.20;76.70;;;;;;4861859;29;20045;-75
2022/08/29 09:46:07;;;;;;;2.67;0.77;;;22.60;70.70;;;;;;4861341;29;20026;-75
2022/08/29 09:48:34;;;;;;;3.55;0.90;;;22.60;69.70;;;;;;4861197;29;20044;-74
2022/08/29 09:51:11;;;;;;;4.50;0.75;;;22.30;67.40;;;;;;4861106;29;20353;-75
2022/08/29 09:53:37;;;;;;;0.70;0.52;;;22.30;71.90;;;;;;4858864;29;20061;-75
2022/08/29 09:56:06;;;;;;;2.58;0.90;;;22.40;69.90;;;;;;4861083;29;20123;-75
2022/08/29 09:58:38;;;;;;;3.10;1.02;;;22.60;69.50;;;;;;4861113;29;20026;-75
2022/08/29 10:01:10;;;;;;;3.25;1.05;;;22.60;69.40;;;;;;4861327;29;20029;-75
2022/08/29 10:03:40;;;;;;;1.73;0.80;;;23.60;65.30;;;;;;4861143;29;20037;-75
2022/08/29 10:06:06;;;;;;;0.88;0.63;;;23.70;63.00;;;;;;4860848;29;20022;-75
2022/08/29 10:08:35;;;;;;;1.80;0.85;;;24.60;65.50;;;;;;4859450;29;20041;-75
2022/08/29 10:11:27;;;;;;;2.67;0.93;;;24.10;59.60;;;;;;4860887;29;20032;-75
2022/08/29 10:13:56;;;;;;;1.85;0.80;;;23.70;60.80;;;;;;4860762;29;20029;-75
2022/08/29 10:16:38;;;;;;;5.25;0.80;;;23.50;60.10;;;;;;4860664;29;20048;-74
2022/08/29 10:19:26;;;;;;;3.33;1.00;;;24.80;60.30;;;;;;4860600;29;20030;-75
2022/08/29 10:22:25;;;;;;;3.80;0.90;;;26.50;53.00;;;;;;4860506;29;20543;-75
2022/08/29 10:25:09;;;;;;;1.90;0.80;;;25.90;50.80;;;;;;4857572;29;20049;-75
2022/08/29 10:28:01;;;;;;;5.05;2.28;;;25.30;55.50;;;;;;4859240;29;20054;-75
2022/08/29 10:30:57;;;;;;;3.38;1.38;;;26.00;52.70;;;;;;4860334;29;20109;-75
2022/08/29 10:34:06;;;;;;;3.33;1.15;;;28.10;50.20;;;;;;4859971;29;20062;-75
2022/08/29 10:36:37;;;;;;;1.15;0.85;;;29.80;43.70;;;;;;4860445;29;20053;-75
2022/08/29 10:39:24;;;;;;;4.13;1.13;;;30.90;42.00;;;;;;4860105;29;20104;-75
2022/08/29 10:42:11;;;;;;;1.02;0.70;;;29.70;39.90;;;;;;4860333;29;20046;-75
2022/08/29 10:45:12;;;;;;;1.50;0.75;;;28.60;45.00;;;;;;4859358;29;20402;-75
2022/08/29 10:47:38;;;;;;;1.60;0.98;;;27.60;46.30;;;;;;4852444;29;20049;-75
2022/08/29 10:50:26;;;;;;;3.38;1.10;;;27.10;43.80;;;;;;4860159;29;20036;-75
2022/08/29 10:53:01;;;;;;;0.90;0.80;;;27.30;45.30;;;;;;4859959;29;20073;-75
2022/08/29 10:55:40;;;;;;;1.60;0.80;;;27.90;42.10;;;;;;4860045;29;20032;-75
2022/08/29 10:58:18;;;;;;;4.43;1.63;;;27.20;44.20;;;;;;4860175;29;20049;-75
2022/08/29 11:00:50;;;;;;;1.58;0.90;;;26.30;44.80;;;;;;4859971;29;20583;-75
2022/08/29 11:03:46;;;;;;;2.95;0.57;;;25.60;47.60;;;;;;4858559;29;20030;-75
2022/08/29 11:06:17;;;;;;;1.42;0.80;;;25.80;45.90;;;;;;4859367;29;20033;-75
2022/08/29 11:08:58;;;;;;;1.92;0.70;;;26.90;44.40;;;;;;4858353;29;20562;-75
2022/08/29 11:11:25;;;;;;;1.10;0.75;;;27.80;42.80;;;;;;4859774;29;20486;-75
2022/08/29 11:13:57;;;;;;;0.90;0.47;;;29.10;43.90;;;;;;4859589;29;20037;-75
2022/08/29 11:16:35;;;;;;;1.15;0.60;;;30.90;38.30;;;;;;4859501;29;20022;-76
2022/08/29 11:19:13;;;;;;;1.88;0.70;;;32.70;35.90;;;;;;4857584;29;20029;-75
2022/08/29 11:21:46;;;;;;;1.33;0.95;;;33.20;31.30;;;;;;4859326;29;20030;-76
2022/08/29 11:24:14;;;;;;;1.23;0.70;;;31.80;31.40;;;;;;4859790;29;20041;-75
2022/08/29 11:26:42;;;;;;;2.67;0.60;;;30.90;35.10;;;;;;4858580;29;20029;-75
2022/08/29 11:29:17;;;;;;;3.42;1.52;;;31.90;35.20;;;;;;4856671;29;20065;-75
2022/08/29 11:31:49;;;;;;;1.60;0.90;;;32.20;31.60;;;;;;4857862;29;20029;-75
2022/08/29 11:34:47;;;;;;;1.65;1.00;;;31.90;33.70;;;;;;4858308;29;20494;-75
2022/08/29 11:37:15;;;;;;;4.05;0.80;;;32.80;31.00;;;;;;4857584;29;20054;-76
2022/08/29 11:39:43;;;;;;;3.67;1.00;;;34.30;31.50;;;;;;4859236;29;20028;-76
2022/08/29 11:42:15;;;;;;;2.15;0.90;;;34.20;31.40;;;;;;4858871;29;20037;-75
2022/08/29 11:44:50;;;;;;;5.60;0.90;;;33.10;32.70;;;;;;4859049;29;20029;-76
2022/08/29 11:47:34;;;;;;;1.20;0.80;;;31.00;34.50;;;;;;4857756;29;20029;-75
2022/08/29 11:50:15;;;;;;;3.55;0.93;;;30.20;37.70;;;;;;4857985;29;20022;-75
2022/08/29 11:53:03;;;;;;;5.68;0.80;;;28.70;38.40;;;;;;4859321;29;20029;-75
2022/08/29 11:55:36;;;;;;;6.15;1.00;;;28.00;43.30;;;;;;4854490;29;20025;-75
2022/08/29 11:58:13;;;;;;;1.75;0.85;;;29.10;38.40;;;;;;4859036;29;20110;-76
2022/08/29 12:00:46;;;;;;;1.58;0.70;;;32.00;38.50;;;;;;4858655;29;20101;-75
2022/08/29 12:03:34;;;;;;;5.10;0.90;;;33.10;32.60;;;;;;4859045;29;20030;-76
2022/08/29 12:06:18;;;;;;;2.78;0.82;;;32.30;31.90;;;;;;4858930;29;20029;-76
2022/08/29 12:09:00;;;;;;;1.67;0.82;;;31.40;32.50;;;;;;4858408;29;20057;-76
2022/08/29 12:12:11;;;;;;;1.92;0.95;;;32.30;33.70;;;;;;4858917;29;20044;-75
2022/08/29 12:14:39;;;;;;;1.67;0.60;;;32.20;32.30;;;;;;4858785;29;20030;-76
2022/08/29 12:17:15;;;;;;;2.72;1.10;;;33.60;31.30;;;;;;4858184;29;20037;-76
2022/08/29 12:19:56;;;;;;;4.10;0.65;;;34.80;31.40;;;;;;4863012;29;20442;-76
2022/08/29 12:22:50;;;;;;;4.17;0.90;;;34.00;29.10;;;;;;4862335;29;20049;-75
2022/08/29 12:25:21;;;;;;;3.00;0.82;;;35.30;29.10;;;;;;4860267;29;20272;-76
2022/08/29 12:28:14;;;;;;;1.73;0.75;;;35.10;29.80;;;;;;4862190;29;20048;-76
2022/08/29 12:31:01;;;;;;;3.28;1.10;;;35.30;28.30;;;;;;4862314;29;20055;-76
2022/08/29 12:33:58;;;;;;;2.92;1.00;;;35.00;29.50;;;;;;4861959;29;20128;-76
2022/08/29 12:36:49;;;;;;;2.03;1.00;;;35.40;28.10;;;;;;4847304;29;20535;-77
2022/08/29 12:39:26;;;;;;;5.60;1.05;;;36.10;27.00;;;;;;4845678;29;20041;-77
2022/08/29 12:42:30;;;;;;;2.22;1.50;;;35.80;26.90;;;;;;4848654;29;20682;-78
2022/08/29 12:45:40;;;;;;;2.75;1.67;;;37.40;27.70;;;;;;4847363;29;20149;-76
2022/08/29 12:48:11;;;;;;;2.80;1.30;;;37.60;27.70;;;;;;4841032;29;20858;-78
2022/08/29 12:50:43;;;;;;;2.63;0.90;;;38.00;26.90;;;;;;4843777;29;20026;-78
2022/08/29 12:53:26;;;;;;;2.85;1.02;;;37.40;25.50;;;;;;4842512;29;20037;-81
2022/08/29 12:55:58;;;;;;;4.63;1.00;;;37.60;25.80;;;;;;4848845;29;20034;-79
2022/08/29 12:58:50;;;;;;;2.42;0.70;;;38.60;27.10;;;;;;4847808;29;20040;-78
2022/08/29 13:01:36;;;;;;;2.40;0.98;;;38.10;25.70;;;;;;4841605;29;20499;-78
2022/08/29 13:04:12;;;;;;;2.15;1.10;;;38.30;26.90;;;;;;4847201;29;20033;-76
2022/08/29 13:06:52;;;;;;;2.63;0.95;;;37.40;25.00;;;;;;4844697;29;20036;-80
2022/08/29 13:09:38;;;;;;;2.35;0.75;;;37.30;25.90;;;;;;4843189;29;20030;-79
2022/08/29 13:12:13;;;;;;;1.05;0.82;;;36.40;26.00;;;;;;4846629;29;20037;-78
2022/08/29 13:14:51;;;;;;;1.88;0.70;;;36.90;26.40;;;;;;4839714;29;20062;-76